Time;durP1;ratioP1;P1;durP2;ratioP2;P2;SDS_P1;SDS_P2;PMS_P1;PMS_P2;Temp;Humidity;BMP_temperature;BMP_pressure;BME280_temperature;BME280_humidity;BME280_pressure;Samples;Min_cycle;Max_cycle;Signal;HPM_P1;HPM_P2
2022/12/16 00:01:09;;;;;;;17.00;10.93;;;7.20;59.70;;;;;;5050961;28;20003;-80
2022/12/16 00:03:35;;;;;;;17.83;11.13;;;7.10;59.60;;;;;;5034756;28;20042;-79
2022/12/16 00:06:04;;;;;;;17.30;11.10;;;7.10;60.20;;;;;;5033322;28;20033;-79
2022/12/16 00:08:36;;;;;;;15.85;10.88;;;7.10;59.60;;;;;;5035588;28;20200;-79
2022/12/16 00:11:03;;;;;;;18.75;11.32;;;7.10;59.60;;;;;;5038127;28;20052;-78
2022/12/16 00:13:31;;;;;;;17.15;12.00;;;7.10;59.60;;;;;;5041910;28;20057;-80
2022/12/16 00:15:58;;;;;;;18.17;11.27;;;7.10;59.60;;;;;;5035435;28;20045;-79
2022/12/16 00:18:24;;;;;;;16.92;11.10;;;7.00;59.60;;;;;;5035707;28;20038;-79
2022/12/16 00:20:54;;;;;;;17.55;11.27;;;7.00;59.60;;;;;;5036591;28;20032;-80
2022/12/16 00:23:21;;;;;;;18.77;11.45;;;7.00;59.60;;;;;;5035851;28;20651;-79
2022/12/16 00:25:48;;;;;;;17.75;10.75;;;7.00;59.60;;;;;;5035253;28;20124;-79
2022/12/16 00:28:15;;;;;;;19.10;10.93;;;7.00;59.60;;;;;;5034372;28;20040;-79
2022/12/16 00:30:42;;;;;;;14.77;9.80;;;7.00;59.60;;;;;;5049522;28;20033;-78
2022/12/16 00:33:09;;;;;;;16.67;10.27;;;7.00;59.60;;;;;;5042540;28;20070;-78
2022/12/16 00:35:35;;;;;;;15.63;10.32;;;7.00;59.60;;;;;;5037088;28;20116;-77
2022/12/16 00:38:01;;;;;;;15.32;10.13;;;7.00;59.70;;;;;;5038857;28;20061;-77
2022/12/16 00:40:27;;;;;;;16.58;10.85;;;7.00;59.70;;;;;;5035864;28;20029;-79
2022/12/16 00:42:53;;;;;;;17.30;10.55;;;7.00;59.80;;;;;;5034720;28;20043;-79
2022/12/16 00:45:19;;;;;;;17.55;11.10;;;7.00;59.80;;;;;;5033726;28;20076;-79
2022/12/16 00:47:48;;;;;;;16.80;10.75;;;7.00;59.70;;;;;;5035942;28;20055;-78
2022/12/16 00:50:14;;;;;;;15.25;10.02;;;7.00;60.30;;;;;;5046223;28;20039;-76
2022/12/16 00:52:39;;;;;;;18.05;10.55;;;7.00;59.70;;;;;;5062511;28;20053;-75
2022/12/16 00:55:06;;;;;;;15.32;9.52;;;7.00;59.70;;;;;;5060961;28;20084;-76
2022/12/16 00:57:33;;;;;;;16.08;9.85;;;7.00;59.70;;;;;;5062887;28;20022;-75
2022/12/16 00:59:59;;;;;;;16.75;10.05;;;7.00;59.70;;;;;;5059326;28;20042;-76
2022/12/16 01:02:24;;;;;;;14.32;9.55;;;7.00;59.70;;;;;;5061989;28;20101;-75
2022/12/16 01:04:50;;;;;;;16.27;9.82;;;7.00;59.80;;;;;;5051378;28;20095;-77
2022/12/16 01:07:16;;;;;;;16.05;9.77;;;6.90;59.70;;;;;;5035901;28;20049;-77
2022/12/16 01:09:42;;;;;;;15.73;10.43;;;7.00;59.80;;;;;;5034532;28;20029;-78
2022/12/16 01:12:08;;;;;;;14.55;9.52;;;6.90;59.80;;;;;;5035215;28;20147;-77
2022/12/16 01:14:34;;;;;;;14.93;9.55;;;7.00;59.80;;;;;;5035641;28;20041;-78
2022/12/16 01:17:00;;;;;;;14.50;9.43;;;6.90;59.80;;;;;;5034627;28;20044;-77
2022/12/16 01:19:26;;;;;;;15.88;10.00;;;6.90;59.90;;;;;;5035193;28;20112;-78
2022/12/16 01:21:52;;;;;;;14.93;9.52;;;6.90;59.90;;;;;;5034559;28;20040;-78
2022/12/16 01:24:18;;;;;;;13.68;9.13;;;6.90;59.90;;;;;;5034770;28;20423;-78
2022/12/16 01:26:44;;;;;;;15.57;9.02;;;6.90;60.00;;;;;;5039087;28;20046;-78
2022/12/16 01:29:10;;;;;;;12.98;8.65;;;6.90;60.00;;;;;;5034191;28;20040;-78
2022/12/16 01:31:36;;;;;;;14.82;8.80;;;6.90;60.10;;;;;;5032617;28;20029;-79
2022/12/16 01:34:03;;;;;;;12.77;8.10;;;6.90;60.10;;;;;;5032395;28;20043;-78
2022/12/16 01:36:29;;;;;;;12.05;8.38;;;6.90;60.10;;;;;;5034837;28;20041;-78
2022/12/16 01:38:54;;;;;;;14.98;8.60;;;6.90;60.10;;;;;;5033791;28;20037;-78
2022/12/16 01:41:22;;;;;;;14.35;8.48;;;6.90;60.10;;;;;;5035221;28;20041;-79
2022/12/16 01:43:48;;;;;;;13.05;8.32;;;6.90;60.10;;;;;;5017477;28;20068;-78
2022/12/16 01:46:14;;;;;;;12.98;8.40;;;6.90;60.10;;;;;;5032691;28;20037;-79
2022/12/16 01:48:55;;;;;;;12.52;8.05;;;6.90;60.10;;;;;;5035406;28;20048;-76
2022/12/16 01:51:34;;;;;;;12.93;8.05;;;6.90;60.10;;;;;;5021895;28;20045;-75
2022/12/16 01:54:21;;;;;;;11.75;7.47;;;6.90;60.10;;;;;;5035024;28;20033;-74
2022/12/16 01:56:53;;;;;;;12.60;7.97;;;6.90;60.10;;;;;;5034940;28;20087;-75
2022/12/16 01:59:21;;;;;;;12.50;8.20;;;6.90;60.10;;;;;;5034214;28;20207;-75
2022/12/16 02:01:47;;;;;;;12.15;7.60;;;6.90;60.10;;;;;;5032598;28;20037;-76
2022/12/16 02:04:13;;;;;;;13.15;8.07;;;6.90;60.10;;;;;;5034762;28;20099;-75
2022/12/16 02:06:39;;;;;;;11.20;7.47;;;6.90;60.10;;;;;;5034376;28;20068;-76
2022/12/16 02:09:10;;;;;;;12.05;8.00;;;6.90;60.10;;;;;;5034096;28;20135;-76
2022/12/16 02:12:01;;;;;;;10.40;7.28;;;6.90;60.10;;;;;;5035210;28;20029;-76
2022/12/16 02:14:27;;;;;;;11.45;7.80;;;6.90;60.10;;;;;;5036181;28;20048;-77
2022/12/16 02:16:57;;;;;;;12.88;7.75;;;6.90;60.20;;;;;;5033966;28;20044;-76
2022/12/16 02:19:44;;;;;;;11.43;7.70;;;6.90;60.20;;;;;;5053035;28;20047;-78
2022/12/16 02:22:29;;;;;;;12.00;7.25;;;6.90;60.20;;;;;;5053132;28;20442;-75
2022/12/16 02:25:01;;;;;;;11.37;7.53;;;6.90;60.20;;;;;;5035660;28;20478;-75
2022/12/16 02:27:27;;;;;;;12.27;7.30;;;6.90;60.40;;;;;;5035642;28;20392;-76
2022/12/16 02:30:32;;;;;;;11.02;7.78;;;6.90;60.40;;;;;;5037059;28;20036;-76
2022/12/16 02:33:21;;;;;;;10.85;7.32;;;6.90;60.40;;;;;;5035313;28;20419;-75
2022/12/16 02:36:01;;;;;;;11.98;7.25;;;6.90;60.40;;;;;;5034955;28;20033;-76
2022/12/16 02:38:45;;;;;;;12.32;7.90;;;6.90;60.40;;;;;;5040965;28;20471;-76
2022/12/16 02:41:54;;;;;;;10.60;7.50;;;6.90;60.50;;;;;;5035450;28;20045;-76
2022/12/16 02:44:25;;;;;;;9.70;6.75;;;6.90;60.50;;;;;;5034931;28;20048;-75
2022/12/16 02:46:53;;;;;;;10.95;7.47;;;6.90;60.60;;;;;;5034737;28;20411;-75
2022/12/16 02:49:19;;;;;;;10.57;6.90;;;6.90;60.50;;;;;;5036077;28;20057;-75
2022/12/16 02:51:46;;;;;;;12.00;7.15;;;6.90;60.50;;;;;;5037811;28;20122;-75
2022/12/16 02:54:14;;;;;;;10.30;7.13;;;6.90;60.60;;;;;;5037371;28;20454;-74
2022/12/16 02:57:12;;;;;;;10.88;6.82;;;6.90;60.60;;;;;;5036449;28;20119;-75
2022/12/16 03:00:01;;;;;;;10.05;6.47;;;6.90;60.70;;;;;;5037162;28;20041;-76
2022/12/16 03:02:47;;;;;;;9.88;6.53;;;6.90;60.70;;;;;;5040001;28;20088;-75
2022/12/16 03:05:34;;;;;;;9.73;6.70;;;6.90;60.60;;;;;;5036599;28;20033;-75
2022/12/16 03:08:12;;;;;;;9.38;6.57;;;6.90;60.70;;;;;;5036072;28;20124;-75
2022/12/16 03:10:45;;;;;;;11.02;6.70;;;6.90;60.60;;;;;;5036337;28;20508;-75
2022/12/16 03:13:13;;;;;;;10.05;6.75;;;6.90;60.70;;;;;;5036332;28;20037;-75
2022/12/16 03:15:40;;;;;;;8.90;6.45;;;6.90;60.60;;;;;;5035951;28;20088;-76
2022/12/16 03:18:09;;;;;;;9.18;6.75;;;6.90;60.70;;;;;;5035426;28;20052;-76
2022/12/16 03:20:43;;;;;;;7.93;5.82;;;7.00;60.90;;;;;;5036997;28;20577;-76
2022/12/16 03:23:16;;;;;;;8.73;6.07;;;7.00;60.90;;;;;;5026953;28;20041;-76
2022/12/16 03:25:46;;;;;;;9.40;6.10;;;6.90;60.90;;;;;;5039049;28;20043;-77
2022/12/16 03:28:44;;;;;;;8.27;6.20;;;7.00;61.00;;;;;;5034002;28;20055;-76
2022/12/16 03:31:46;;;;;;;8.90;6.30;;;7.00;60.90;;;;;;5032721;28;20037;-76
2022/12/16 03:34:31;;;;;;;10.20;6.00;;;7.00;60.90;;;;;;5031095;28;20042;-76
2022/12/16 03:37:06;;;;;;;8.68;5.95;;;7.00;61.00;;;;;;5035847;28;20159;-75
2022/12/16 03:39:48;;;;;;;8.48;6.00;;;7.00;60.90;;;;;;5035821;28;20044;-76
2022/12/16 03:42:15;;;;;;;7.93;5.82;;;7.00;61.00;;;;;;5035275;28;20028;-75
2022/12/16 03:44:43;;;;;;;8.27;6.05;;;7.00;61.00;;;;;;5035366;28;20087;-75
2022/12/16 03:47:09;;;;;;;9.90;5.85;;;7.00;61.10;;;;;;5034432;28;20034;-84
2022/12/16 03:49:35;;;;;;;9.77;6.85;;;7.00;61.10;;;;;;5044696;28;20067;-86
2022/12/16 03:52:01;;;;;;;8.18;6.28;;;7.00;61.10;;;;;;5037205;28;20029;-86
2022/12/16 03:54:27;;;;;;;7.78;5.72;;;7.00;61.10;;;;;;5036225;28;20041;-84
2022/12/16 03:56:53;;;;;;;8.70;5.95;;;7.00;61.20;;;;;;5039634;28;20036;-86
2022/12/16 03:59:19;;;;;;;8.55;5.95;;;7.00;61.20;;;;;;5036789;28;20178;-86
2022/12/16 04:01:45;;;;;;;9.73;5.97;;;7.00;61.30;;;;;;5036164;28;20082;-85
2022/12/16 04:04:11;;;;;;;9.43;6.30;;;7.00;61.30;;;;;;5035821;28;20052;-77
2022/12/16 04:06:37;;;;;;;8.73;6.10;;;7.00;61.40;;;;;;5036434;28;21352;-76
2022/12/16 04:09:03;;;;;;;9.05;6.22;;;7.00;61.50;;;;;;5034970;28;20033;-78
2022/12/16 04:25:23;;;;;;;9.20;6.20;;;7.10;61.80;;;;;;5035985;28;20041;-74
2022/12/16 04:27:49;;;;;;;9.10;6.30;;;7.10;61.80;;;;;;5035566;28;20740;-76
2022/12/16 04:30:17;;;;;;;8.18;5.80;;;7.10;61.80;;;;;;5037635;28;20024;-79
